sensor_id;sensor_type;location;lat;lon;timestamp;P1;durP1;ratioP1;P2;durP2;ratioP2
31594;SDS011;18200;48.726;8.892;2022-07-29T00:02:17;6.75;;;5.45;;
31594;SDS011;18200;48.726;8.892;2022-07-29T00:06:18;10.88;;;6.00;;
31594;SDS011;18200;48.726;8.892;2022-07-29T00:10:18;8.43;;;5.97;;
31594;SDS011;18200;48.726;8.892;2022-07-29T00:14:19;6.78;;;5.00;;
31594;SDS011;18200;48.726;8.892;2022-07-29T00:18:19;6.93;;;6.03;;
31594;SDS011;18200;48.726;8.892;2022-07-29T00:22:20;8.07;;;5.43;;
31594;SDS011;18200;48.726;8.892;2022-07-29T00:26:20;8.35;;;5.45;;
31594;SDS011;18200;48.726;8.892;2022-07-29T00:30:21;8.00;;;5.88;;
31594;SDS011;18200;48.726;8.892;2022-07-29T00:34:23;8.07;;;6.47;;
31594;SDS011;18200;48.726;8.892;2022-07-29T00:38:42;7.35;;;6.18;;
31594;SDS011;18200;48.726;8.892;2022-07-29T00:42:49;8.13;;;5.85;;
31594;SDS011;18200;48.726;8.892;2022-07-29T00:46:52;11.25;;;6.57;;
31594;SDS011;18200;48.726;8.892;2022-07-29T00:50:52;8.73;;;6.03;;
31594;SDS011;18200;48.726;8.892;2022-07-29T00:54:53;6.32;;;5.57;;
31594;SDS011;18200;48.726;8.892;2022-07-29T00:58:53;8.18;;;6.53;;
31594;SDS011;18200;48.726;8.892;2022-07-29T01:02:56;7.60;;;5.95;;
31594;SDS011;18200;48.726;8.892;2022-07-29T01:06:57;10.25;;;6.45;;
31594;SDS011;18200;48.726;8.892;2022-07-29T01:10:58;7.95;;;6.22;;
31594;SDS011;18200;48.726;8.892;2022-07-29T01:15:00;9.10;;;6.15;;
31594;SDS011;18200;48.726;8.892;2022-07-29T01:19:07;9.68;;;6.82;;
31594;SDS011;18200;48.726;8.892;2022-07-29T01:32:37;7.93;;;7.00;;
31594;SDS011;18200;48.726;8.892;2022-07-29T01:36:45;8.60;;;6.30;;
31594;SDS011;18200;48.726;8.892;2022-07-29T01:40:54;10.25;;;6.30;;
31594;SDS011;18200;48.726;8.892;2022-07-29T01:45:15;13.63;;;7.20;;
31594;SDS011;18200;48.726;8.892;2022-07-29T01:49:21;9.63;;;7.03;;
31594;SDS011;18200;48.726;8.892;2022-07-29T01:53:28;10.50;;;6.90;;
31594;SDS011;18200;48.726;8.892;2022-07-29T01:57:32;10.07;;;6.50;;
31594;SDS011;18200;48.726;8.892;2022-07-29T02:01:35;7.82;;;6.80;;
31594;SDS011;18200;48.726;8.892;2022-07-29T02:05:38;7.47;;;6.00;;
31594;SDS011;18200;48.726;8.892;2022-07-29T02:09:41;8.05;;;6.50;;
31594;SDS011;18200;48.726;8.892;2022-07-29T02:13:43;10.80;;;6.68;;
31594;SDS011;18200;48.726;8.892;2022-07-29T02:17:50;11.55;;;6.68;;
31594;SDS011;18200;48.726;8.892;2022-07-29T02:21:55;9.30;;;6.63;;
31594;SDS011;18200;48.726;8.892;2022-07-29T02:25:58;9.27;;;6.70;;
31594;SDS011;18200;48.726;8.892;2022-07-29T02:30:00;9.15;;;7.18;;
31594;SDS011;18200;48.726;8.892;2022-07-29T02:34:04;11.10;;;8.45;;
31594;SDS011;18200;48.726;8.892;2022-07-29T02:38:07;12.50;;;7.30;;
31594;SDS011;18200;48.726;8.892;2022-07-29T02:42:31;9.57;;;7.05;;
31594;SDS011;18200;48.726;8.892;2022-07-29T02:46:36;9.82;;;7.80;;
31594;SDS011;18200;48.726;8.892;2022-07-29T02:50:48;9.95;;;7.25;;
31594;SDS011;18200;48.726;8.892;2022-07-29T02:54:53;9.23;;;7.93;;
31594;SDS011;18200;48.726;8.892;2022-07-29T02:58:57;10.45;;;7.20;;
31594;SDS011;18200;48.726;8.892;2022-07-29T03:03:01;9.75;;;6.85;;
31594;SDS011;18200;48.726;8.892;2022-07-29T03:07:07;10.10;;;7.63;;
31594;SDS011;18200;48.726;8.892;2022-07-29T03:11:09;9.38;;;7.85;;
31594;SDS011;18200;48.726;8.892;2022-07-29T03:15:12;12.07;;;7.90;;
31594;SDS011;18200;48.726;8.892;2022-07-29T03:19:13;10.98;;;8.02;;
31594;SDS011;18200;48.726;8.892;2022-07-29T03:23:18;9.07;;;8.00;;
31594;SDS011;18200;48.726;8.892;2022-07-29T03:27:19;10.32;;;7.35;;
31594;SDS011;18200;48.726;8.892;2022-07-29T03:31:20;10.20;;;7.50;;
31594;SDS011;18200;48.726;8.892;2022-07-29T03:35:21;12.65;;;7.65;;
31594;SDS011;18200;48.726;8.892;2022-07-29T03:39:23;10.65;;;8.40;;
31594;SDS011;18200;48.726;8.892;2022-07-29T03:43:28;8.20;;;6.97;;
31594;SDS011;18200;48.726;8.892;2022-07-29T03:47:33;9.10;;;6.93;;
31594;SDS011;18200;48.726;8.892;2022-07-29T03:51:35;8.48;;;7.18;;
31594;SDS011;18200;48.726;8.892;2022-07-29T03:55:37;7.60;;;6.43;;
31594;SDS011;18200;48.726;8.892;2022-07-29T03:59:41;8.95;;;7.07;;
31594;SDS011;18200;48.726;8.892;2022-07-29T04:03:43;8.50;;;6.25;;
31594;SDS011;18200;48.726;8.892;2022-07-29T04:07:47;14.18;;;7.32;;
31594;SDS011;18200;48.726;8.892;2022-07-29T04:11:48;8.95;;;7.40;;
31594;SDS011;18200;48.726;8.892;2022-07-29T04:15:49;9.13;;;6.70;;
31594;SDS011;18200;48.726;8.892;2022-07-29T04:19:49;9.00;;;6.53;;
31594;SDS011;18200;48.726;8.892;2022-07-29T04:23:49;8.85;;;6.35;;
31594;SDS011;18200;48.726;8.892;2022-07-29T04:27:50;9.52;;;6.32;;
31594;SDS011;18200;48.726;8.892;2022-07-29T04:32:02;9.75;;;6.65;;
31594;SDS011;18200;48.726;8.892;2022-07-29T04:36:03;7.68;;;6.63;;
31594;SDS011;18200;48.726;8.892;2022-07-29T04:40:05;8.30;;;6.68;;
31594;SDS011;18200;48.726;8.892;2022-07-29T04:44:06;8.48;;;6.68;;
31594;SDS011;18200;48.726;8.892;2022-07-29T04:48:06;9.00;;;7.18;;
31594;SDS011;18200;48.726;8.892;2022-07-29T04:52:06;10.32;;;6.70;;
31594;SDS011;18200;48.726;8.892;2022-07-29T04:56:07;6.78;;;5.40;;
31594;SDS011;18200;48.726;8.892;2022-07-29T05:00:08;7.00;;;5.47;;
31594;SDS011;18200;48.726;8.892;2022-07-29T05:04:09;11.02;;;6.10;;
31594;SDS011;18200;48.726;8.892;2022-07-29T05:08:09;7.50;;;5.85;;
31594;SDS011;18200;48.726;8.892;2022-07-29T05:12:10;8.57;;;5.50;;
31594;SDS011;18200;48.726;8.892;2022-07-29T05:16:13;7.28;;;5.40;;
31594;SDS011;18200;48.726;8.892;2022-07-29T05:20:13;8.85;;;6.20;;
31594;SDS011;18200;48.726;8.892;2022-07-29T05:24:14;8.48;;;5.72;;
31594;SDS011;18200;48.726;8.892;2022-07-29T05:28:14;10.20;;;5.72;;
31594;SDS011;18200;48.726;8.892;2022-07-29T05:32:15;8.23;;;5.47;;
31594;SDS011;18200;48.726;8.892;2022-07-29T05:36:15;8.07;;;5.50;;
31594;SDS011;18200;48.726;8.892;2022-07-29T05:40:15;10.75;;;5.70;;
31594;SDS011;18200;48.726;8.892;2022-07-29T05:44:17;7.30;;;5.38;;
31594;SDS011;18200;48.726;8.892;2022-07-29T05:48:17;6.97;;;5.30;;
31594;SDS011;18200;48.726;8.892;2022-07-29T05:52:18;6.15;;;5.40;;
31594;SDS011;18200;48.726;8.892;2022-07-29T05:56:18;8.05;;;6.00;;
31594;SDS011;18200;48.726;8.892;2022-07-29T06:00:18;6.47;;;5.82;;
31594;SDS011;18200;48.726;8.892;2022-07-29T06:04:19;7.35;;;5.53;;
31594;SDS011;18200;48.726;8.892;2022-07-29T06:08:19;7.72;;;5.57;;
31594;SDS011;18200;48.726;8.892;2022-07-29T06:12:19;6.93;;;5.82;;
31594;SDS011;18200;48.726;8.892;2022-07-29T06:16:20;8.63;;;5.25;;
31594;SDS011;18200;48.726;8.892;2022-07-29T06:20:20;6.85;;;5.68;;
31594;SDS011;18200;48.726;8.892;2022-07-29T06:24:21;7.93;;;5.82;;
31594;SDS011;18200;48.726;8.892;2022-07-29T06:28:21;8.57;;;5.60;;
31594;SDS011;18200;48.726;8.892;2022-07-29T06:32:21;7.32;;;5.63;;
31594;SDS011;18200;48.726;8.892;2022-07-29T06:36:22;9.95;;;6.55;;
31594;SDS011;18200;48.726;8.892;2022-07-29T06:40:22;9.65;;;5.25;;
31594;SDS011;18200;48.726;8.892;2022-07-29T06:44:41;6.05;;;5.43;;
31594;SDS011;18200;48.726;8.892;2022-07-29T06:48:42;10.65;;;6.05;;
31594;SDS011;18200;48.726;8.892;2022-07-29T06:52:43;8.60;;;5.82;;
31594;SDS011;18200;48.726;8.892;2022-07-29T06:56:44;6.78;;;5.38;;
31594;SDS011;18200;48.726;8.892;2022-07-29T07:00:44;7.80;;;5.75;;
31594;SDS011;18200;48.726;8.892;2022-07-29T07:04:45;14.65;;;5.60;;
31594;SDS011;18200;48.726;8.892;2022-07-29T07:08:45;9.85;;;5.57;;
31594;SDS011;18200;48.726;8.892;2022-07-29T07:12:45;9.63;;;6.05;;
31594;SDS011;18200;48.726;8.892;2022-07-29T07:16:46;5.90;;;5.30;;
31594;SDS011;18200;48.726;8.892;2022-07-29T07:20:46;7.70;;;5.88;;
31594;SDS011;18200;48.726;8.892;2022-07-29T07:24:47;8.07;;;5.45;;
31594;SDS011;18200;48.726;8.892;2022-07-29T07:28:47;9.02;;;5.03;;
31594;SDS011;18200;48.726;8.892;2022-07-29T07:32:48;5.95;;;4.80;;
31594;SDS011;18200;48.726;8.892;2022-07-29T07:36:48;8.90;;;4.70;;
31594;SDS011;18200;48.726;8.892;2022-07-29T07:40:49;12.32;;;4.70;;
31594;SDS011;18200;48.726;8.892;2022-07-29T07:44:49;8.02;;;5.38;;
31594;SDS011;18200;48.726;8.892;2022-07-29T07:48:50;7.80;;;4.93;;
31594;SDS011;18200;48.726;8.892;2022-07-29T07:52:52;9.60;;;4.47;;
31594;SDS011;18200;48.726;8.892;2022-07-29T07:56:54;5.97;;;4.80;;
31594;SDS011;18200;48.726;8.892;2022-07-29T08:00:55;7.80;;;4.57;;
31594;SDS011;18200;48.726;8.892;2022-07-29T08:04:55;8.45;;;4.88;;
31594;SDS011;18200;48.726;8.892;2022-07-29T08:08:55;9.13;;;4.93;;
31594;SDS011;18200;48.726;8.892;2022-07-29T08:12:56;5.65;;;4.38;;
31594;SDS011;18200;48.726;8.892;2022-07-29T08:16:56;6.95;;;4.47;;
31594;SDS011;18200;48.726;8.892;2022-07-29T08:20:57;7.85;;;4.40;;
31594;SDS011;18200;48.726;8.892;2022-07-29T08:24:58;6.68;;;4.60;;
31594;SDS011;18200;48.726;8.892;2022-07-29T08:28:59;8.02;;;4.40;;
31594;SDS011;18200;48.726;8.892;2022-07-29T08:32:59;6.25;;;4.50;;
31594;SDS011;18200;48.726;8.892;2022-07-29T08:37:00;11.05;;;4.90;;
31594;SDS011;18200;48.726;8.892;2022-07-29T08:41:01;13.23;;;4.68;;
31594;SDS011;18200;48.726;8.892;2022-07-29T08:45:02;5.88;;;3.97;;
31594;SDS011;18200;48.726;8.892;2022-07-29T08:49:03;6.82;;;4.80;;
31594;SDS011;18200;48.726;8.892;2022-07-29T08:53:04;7.82;;;4.00;;
31594;SDS011;18200;48.726;8.892;2022-07-29T08:57:07;8.50;;;4.53;;
31594;SDS011;18200;48.726;8.892;2022-07-29T09:01:07;9.55;;;4.70;;
31594;SDS011;18200;48.726;8.892;2022-07-29T09:05:10;7.00;;;3.90;;
31594;SDS011;18200;48.726;8.892;2022-07-29T09:09:10;9.70;;;4.75;;
31594;SDS011;18200;48.726;8.892;2022-07-29T09:13:11;8.48;;;4.28;;
31594;SDS011;18200;48.726;8.892;2022-07-29T09:17:11;7.00;;;4.72;;
31594;SDS011;18200;48.726;8.892;2022-07-29T09:21:12;6.57;;;4.23;;
31594;SDS011;18200;48.726;8.892;2022-07-29T09:25:37;10.40;;;4.53;;
31594;SDS011;18200;48.726;8.892;2022-07-29T09:29:40;10.25;;;4.70;;
31594;SDS011;18200;48.726;8.892;2022-07-29T09:33:40;16.38;;;4.70;;
31594;SDS011;18200;48.726;8.892;2022-07-29T09:37:42;7.10;;;4.15;;
31594;SDS011;18200;48.726;8.892;2022-07-29T09:41:54;7.75;;;4.55;;
31594;SDS011;18200;48.726;8.892;2022-07-29T09:45:55;31.45;;;6.63;;
31594;SDS011;18200;48.726;8.892;2022-07-29T09:50:09;16.13;;;5.03;;
31594;SDS011;18200;48.726;8.892;2022-07-29T09:54:25;10.68;;;4.72;;
31594;SDS011;18200;48.726;8.892;2022-07-29T09:58:27;9.88;;;4.85;;
31594;SDS011;18200;48.726;8.892;2022-07-29T10:02:32;10.68;;;5.20;;
31594;SDS011;18200;48.726;8.892;2022-07-29T10:06:33;16.92;;;6.20;;
31594;SDS011;18200;48.726;8.892;2022-07-29T10:10:35;10.60;;;6.03;;
31594;SDS011;18200;48.726;8.892;2022-07-29T10:14:37;15.88;;;7.10;;
31594;SDS011;18200;48.726;8.892;2022-07-29T10:18:38;20.05;;;7.43;;
31594;SDS011;18200;48.726;8.892;2022-07-29T10:22:40;17.35;;;8.57;;
31594;SDS011;18200;48.726;8.892;2022-07-29T10:26:41;15.00;;;8.10;;
31594;SDS011;18200;48.726;8.892;2022-07-29T10:30:42;11.93;;;6.70;;
31594;SDS011;18200;48.726;8.892;2022-07-29T10:43:24;10.65;;;6.50;;
31594;SDS011;18200;48.726;8.892;2022-07-29T10:47:28;10.75;;;5.85;;
31594;SDS011;18200;48.726;8.892;2022-07-29T10:52:15;10.95;;;6.35;;
31594;SDS011;18200;48.726;8.892;2022-07-29T10:55:51;13.75;;;7.35;;
31594;SDS011;18200;48.726;8.892;2022-07-29T11:04:04;13.18;;;6.10;;
31594;SDS011;18200;48.726;8.892;2022-07-29T11:21:00;11.00;;;6.25;;
31594;SDS011;18200;48.726;8.892;2022-07-29T11:25:16;11.70;;;6.45;;
31594;SDS011;18200;48.726;8.892;2022-07-29T11:29:21;10.65;;;5.75;;
31594;SDS011;18200;48.726;8.892;2022-07-29T11:33:28;9.30;;;6.07;;
31594;SDS011;18200;48.726;8.892;2022-07-29T11:37:29;12.00;;;6.50;;
31594;SDS011;18200;48.726;8.892;2022-07-29T11:41:30;11.70;;;5.95;;
31594;SDS011;18200;48.726;8.892;2022-07-29T11:45:44;11.27;;;6.47;;
31594;SDS011;18200;48.726;8.892;2022-07-29T11:49:46;12.68;;;6.65;;
31594;SDS011;18200;48.726;8.892;2022-07-29T11:53:47;7.78;;;6.13;;
31594;SDS011;18200;48.726;8.892;2022-07-29T11:57:52;9.07;;;5.88;;
31594;SDS011;18200;48.726;8.892;2022-07-29T12:01:55;11.07;;;7.10;;
31594;SDS011;18200;48.726;8.892;2022-07-29T12:05:56;7.65;;;5.80;;
31594;SDS011;18200;48.726;8.892;2022-07-29T12:09:57;9.35;;;5.85;;
31594;SDS011;18200;48.726;8.892;2022-07-29T12:13:57;10.73;;;5.57;;
31594;SDS011;18200;48.726;8.892;2022-07-29T12:17:58;13.95;;;5.35;;
31594;SDS011;18200;48.726;8.892;2022-07-29T12:21:58;7.97;;;5.20;;
31594;SDS011;18200;48.726;8.892;2022-07-29T12:25:59;6.35;;;5.15;;
31594;SDS011;18200;48.726;8.892;2022-07-29T12:30:01;12.60;;;5.72;;
31594;SDS011;18200;48.726;8.892;2022-07-29T12:34:05;7.55;;;5.63;;
31594;SDS011;18200;48.726;8.892;2022-07-29T12:38:05;10.90;;;6.03;;
31594;SDS011;18200;48.726;8.892;2022-07-29T12:42:12;7.43;;;5.50;;
31594;SDS011;18200;48.726;8.892;2022-07-29T12:46:14;8.45;;;5.60;;
31594;SDS011;18200;48.726;8.892;2022-07-29T12:50:15;8.63;;;6.15;;
31594;SDS011;18200;48.726;8.892;2022-07-29T12:54:17;6.75;;;5.88;;
31594;SDS011;18200;48.726;8.892;2022-07-29T12:58:37;8.43;;;6.15;;
31594;SDS011;18200;48.726;8.892;2022-07-29T13:02:41;8.80;;;6.10;;
31594;SDS011;18200;48.726;8.892;2022-07-29T13:06:44;8.57;;;6.43;;
31594;SDS011;18200;48.726;8.892;2022-07-29T13:10:45;12.60;;;6.57;;
31594;SDS011;18200;48.726;8.892;2022-07-29T13:14:49;35.75;;;8.52;;
31594;SDS011;18200;48.726;8.892;2022-07-29T13:19:02;15.73;;;6.05;;
31594;SDS011;18200;48.726;8.892;2022-07-29T13:23:03;9.33;;;5.10;;
31594;SDS011;18200;48.726;8.892;2022-07-29T13:27:04;6.20;;;4.82;;
31594;SDS011;18200;48.726;8.892;2022-07-29T13:31:04;5.07;;;4.45;;
31594;SDS011;18200;48.726;8.892;2022-07-29T13:35:06;7.32;;;4.55;;
31594;SDS011;18200;48.726;8.892;2022-07-29T13:39:07;6.60;;;4.75;;
31594;SDS011;18200;48.726;8.892;2022-07-29T13:43:11;6.80;;;4.73;;
31594;SDS011;18200;48.726;8.892;2022-07-29T13:47:12;7.95;;;5.20;;
31594;SDS011;18200;48.726;8.892;2022-07-29T13:51:12;5.95;;;4.50;;
31594;SDS011;18200;48.726;8.892;2022-07-29T13:55:13;8.57;;;5.80;;
31594;SDS011;18200;48.726;8.892;2022-07-29T13:59:13;6.88;;;4.68;;
31594;SDS011;18200;48.726;8.892;2022-07-29T14:03:13;8.52;;;5.32;;
31594;SDS011;18200;48.726;8.892;2022-07-29T14:07:14;8.90;;;4.53;;
31594;SDS011;18200;48.726;8.892;2022-07-29T14:11:14;9.13;;;4.80;;
31594;SDS011;18200;48.726;8.892;2022-07-29T14:15:15;7.93;;;5.30;;
31594;SDS011;18200;48.726;8.892;2022-07-29T14:19:15;7.05;;;5.32;;
31594;SDS011;18200;48.726;8.892;2022-07-29T14:23:15;6.00;;;5.20;;
31594;SDS011;18200;48.726;8.892;2022-07-29T14:27:16;7.72;;;5.53;;
31594;SDS011;18200;48.726;8.892;2022-07-29T14:31:16;13.80;;;6.45;;
31594;SDS011;18200;48.726;8.892;2022-07-29T14:35:16;11.85;;;5.85;;
31594;SDS011;18200;48.726;8.892;2022-07-29T14:39:17;6.40;;;5.13;;
31594;SDS011;18200;48.726;8.892;2022-07-29T14:43:17;8.35;;;5.20;;
31594;SDS011;18200;48.726;8.892;2022-07-29T14:47:18;8.38;;;5.18;;
31594;SDS011;18200;48.726;8.892;2022-07-29T14:51:19;9.15;;;5.53;;
31594;SDS011;18200;48.726;8.892;2022-07-29T14:55:19;12.83;;;6.13;;
31594;SDS011;18200;48.726;8.892;2022-07-29T14:59:20;12.05;;;6.45;;
31594;SDS011;18200;48.726;8.892;2022-07-29T15:03:20;8.07;;;5.50;;
31594;SDS011;18200;48.726;8.892;2022-07-29T15:07:20;9.98;;;5.30;;
31594;SDS011;18200;48.726;8.892;2022-07-29T15:11:21;9.30;;;5.53;;
31594;SDS011;18200;48.726;8.892;2022-07-29T15:15:21;8.18;;;5.75;;
31594;SDS011;18200;48.726;8.892;2022-07-29T15:19:22;9.88;;;5.55;;
31594;SDS011;18200;48.726;8.892;2022-07-29T15:23:22;10.48;;;6.40;;
31594;SDS011;18200;48.726;8.892;2022-07-29T15:27:23;11.93;;;6.05;;
31594;SDS011;18200;48.726;8.892;2022-07-29T15:31:23;10.32;;;6.68;;
31594;SDS011;18200;48.726;8.892;2022-07-29T15:35:23;8.60;;;6.45;;
31594;SDS011;18200;48.726;8.892;2022-07-29T15:39:24;11.88;;;6.95;;
31594;SDS011;18200;48.726;8.892;2022-07-29T15:43:24;9.47;;;6.73;;
31594;SDS011;18200;48.726;8.892;2022-07-29T15:47:25;8.98;;;5.93;;
31594;SDS011;18200;48.726;8.892;2022-07-29T15:51:26;8.10;;;6.18;;
31594;SDS011;18200;48.726;8.892;2022-07-29T15:55:26;11.82;;;5.82;;
31594;SDS011;18200;48.726;8.892;2022-07-29T15:59:27;8.90;;;6.13;;
31594;SDS011;18200;48.726;8.892;2022-07-29T16:03:28;8.45;;;5.78;;
31594;SDS011;18200;48.726;8.892;2022-07-29T16:07:28;12.18;;;6.10;;
31594;SDS011;18200;48.726;8.892;2022-07-29T16:11:28;8.20;;;5.82;;
31594;SDS011;18200;48.726;8.892;2022-07-29T16:15:29;7.45;;;6.63;;
31594;SDS011;18200;48.726;8.892;2022-07-29T16:19:29;14.35;;;7.25;;
31594;SDS011;18200;48.726;8.892;2022-07-29T16:23:30;10.45;;;7.30;;
31594;SDS011;18200;48.726;8.892;2022-07-29T16:27:31;15.25;;;7.97;;
31594;SDS011;18200;48.726;8.892;2022-07-29T16:31:32;7.53;;;6.15;;
31594;SDS011;18200;48.726;8.892;2022-07-29T16:35:32;12.85;;;7.22;;
31594;SDS011;18200;48.726;8.892;2022-07-29T16:39:35;8.30;;;5.88;;
31594;SDS011;18200;48.726;8.892;2022-07-29T16:43:35;9.77;;;5.97;;
31594;SDS011;18200;48.726;8.892;2022-07-29T16:47:35;13.50;;;6.40;;
31594;SDS011;18200;48.726;8.892;2022-07-29T16:51:36;6.30;;;4.80;;
31594;SDS011;18200;48.726;8.892;2022-07-29T16:55:36;6.43;;;4.15;;
31594;SDS011;18200;48.726;8.892;2022-07-29T16:59:37;7.32;;;4.40;;
31594;SDS011;18200;48.726;8.892;2022-07-29T17:03:37;4.38;;;3.97;;
31594;SDS011;18200;48.726;8.892;2022-07-29T17:08:00;7.85;;;3.95;;
31594;SDS011;18200;48.726;8.892;2022-07-29T17:12:01;6.33;;;3.17;;
31594;SDS011;18200;48.726;8.892;2022-07-29T17:16:01;6.50;;;3.08;;
31594;SDS011;18200;48.726;8.892;2022-07-29T17:20:02;6.65;;;3.40;;
31594;SDS011;18200;48.726;8.892;2022-07-29T17:24:03;7.72;;;3.10;;
31594;SDS011;18200;48.726;8.892;2022-07-29T17:28:04;4.63;;;2.15;;
31594;SDS011;18200;48.726;8.892;2022-07-29T17:32:04;4.20;;;2.90;;
31594;SDS011;18200;48.726;8.892;2022-07-29T17:36:06;9.95;;;2.75;;
31594;SDS011;18200;48.726;8.892;2022-07-29T17:40:25;4.40;;;2.85;;
31594;SDS011;18200;48.726;8.892;2022-07-29T17:44:26;4.63;;;3.20;;
31594;SDS011;18200;48.726;8.892;2022-07-29T17:48:26;6.32;;;2.75;;
31594;SDS011;18200;48.726;8.892;2022-07-29T17:52:27;4.50;;;3.13;;
31594;SDS011;18200;48.726;8.892;2022-07-29T17:56:27;4.35;;;2.88;;
31594;SDS011;18200;48.726;8.892;2022-07-29T18:00:28;5.95;;;2.63;;
31594;SDS011;18200;48.726;8.892;2022-07-29T18:04:28;2.60;;;2.40;;
31594;SDS011;18200;48.726;8.892;2022-07-29T18:08:30;4.35;;;2.55;;
31594;SDS011;18200;48.726;8.892;2022-07-29T18:12:30;5.18;;;2.60;;
31594;SDS011;18200;48.726;8.892;2022-07-29T18:16:31;4.40;;;2.90;;
31594;SDS011;18200;48.726;8.892;2022-07-29T18:20:31;8.13;;;3.85;;
31594;SDS011;18200;48.726;8.892;2022-07-29T18:24:32;7.53;;;3.78;;
31594;SDS011;18200;48.726;8.892;2022-07-29T18:28:32;6.00;;;3.10;;
31594;SDS011;18200;48.726;8.892;2022-07-29T18:32:33;5.07;;;3.20;;
31594;SDS011;18200;48.726;8.892;2022-07-29T18:36:33;4.07;;;3.25;;
31594;SDS011;18200;48.726;8.892;2022-07-29T18:40:34;4.85;;;2.83;;
31594;SDS011;18200;48.726;8.892;2022-07-29T18:44:34;5.10;;;3.20;;
31594;SDS011;18200;48.726;8.892;2022-07-29T18:48:35;7.22;;;3.53;;
31594;SDS011;18200;48.726;8.892;2022-07-29T18:52:35;4.45;;;3.13;;
31594;SDS011;18200;48.726;8.892;2022-07-29T18:56:36;5.63;;;3.58;;
31594;SDS011;18200;48.726;8.892;2022-07-29T19:00:36;4.82;;;3.67;;
31594;SDS011;18200;48.726;8.892;2022-07-29T19:04:37;9.80;;;3.70;;
31594;SDS011;18200;48.726;8.892;2022-07-29T19:08:37;7.35;;;3.58;;
31594;SDS011;18200;48.726;8.892;2022-07-29T19:12:37;5.18;;;3.35;;
31594;SDS011;18200;48.726;8.892;2022-07-29T19:16:38;8.20;;;3.70;;
31594;SDS011;18200;48.726;8.892;2022-07-29T19:20:38;7.55;;;3.83;;
31594;SDS011;18200;48.726;8.892;2022-07-29T19:24:39;9.02;;;3.60;;
31594;SDS011;18200;48.726;8.892;2022-07-29T19:28:40;5.85;;;3.88;;
31594;SDS011;18200;48.726;8.892;2022-07-29T19:32:40;3.88;;;3.33;;
31594;SDS011;18200;48.726;8.892;2022-07-29T19:36:41;6.90;;;3.83;;
31594;SDS011;18200;48.726;8.892;2022-07-29T19:40:42;8.35;;;3.70;;
31594;SDS011;18200;48.726;8.892;2022-07-29T19:44:43;4.47;;;3.80;;
31594;SDS011;18200;48.726;8.892;2022-07-29T19:48:43;7.03;;;4.65;;
31594;SDS011;18200;48.726;8.892;2022-07-29T19:52:44;8.30;;;4.05;;
31594;SDS011;18200;48.726;8.892;2022-07-29T19:56:49;5.63;;;3.78;;
31594;SDS011;18200;48.726;8.892;2022-07-29T20:00:49;5.57;;;3.85;;
31594;SDS011;18200;48.726;8.892;2022-07-29T20:04:50;6.78;;;3.45;;
31594;SDS011;18200;48.726;8.892;2022-07-29T20:08:50;8.07;;;4.35;;
31594;SDS011;18200;48.726;8.892;2022-07-29T20:12:50;8.48;;;4.40;;
31594;SDS011;18200;48.726;8.892;2022-07-29T20:16:52;9.20;;;4.28;;
31594;SDS011;18200;48.726;8.892;2022-07-29T20:20:55;9.85;;;4.70;;
31594;SDS011;18200;48.726;8.892;2022-07-29T20:24:56;7.70;;;4.32;;
31594;SDS011;18200;48.726;8.892;2022-07-29T20:28:56;7.53;;;4.82;;
31594;SDS011;18200;48.726;8.892;2022-07-29T20:32:57;6.38;;;4.22;;
31594;SDS011;18200;48.726;8.892;2022-07-29T20:36:57;8.38;;;5.00;;
31594;SDS011;18200;48.726;8.892;2022-07-29T20:40:59;6.47;;;4.10;;
31594;SDS011;18200;48.726;8.892;2022-07-29T20:44:59;6.32;;;4.15;;
31594;SDS011;18200;48.726;8.892;2022-07-29T20:48:59;11.63;;;4.60;;
31594;SDS011;18200;48.726;8.892;2022-07-29T20:53:00;9.65;;;4.40;;
31594;SDS011;18200;48.726;8.892;2022-07-29T20:57:00;8.85;;;4.38;;
31594;SDS011;18200;48.726;8.892;2022-07-29T21:01:00;9.48;;;4.65;;
31594;SDS011;18200;48.726;8.892;2022-07-29T21:05:01;9.32;;;4.90;;
31594;SDS011;18200;48.726;8.892;2022-07-29T21:09:02;13.95;;;4.78;;
31594;SDS011;18200;48.726;8.892;2022-07-29T21:13:02;7.75;;;4.07;;
31594;SDS011;18200;48.726;8.892;2022-07-29T21:17:02;13.77;;;4.70;;
31594;SDS011;18200;48.726;8.892;2022-07-29T21:21:06;11.68;;;4.78;;
31594;SDS011;18200;48.726;8.892;2022-07-29T21:25:07;11.18;;;4.50;;
31594;SDS011;18200;48.726;8.892;2022-07-29T21:29:08;7.97;;;4.13;;
31594;SDS011;18200;48.726;8.892;2022-07-29T21:33:09;9.93;;;3.90;;
31594;SDS011;18200;48.726;8.892;2022-07-29T21:37:09;5.97;;;4.00;;
31594;SDS011;18200;48.726;8.892;2022-07-29T21:41:10;7.22;;;4.47;;
31594;SDS011;18200;48.726;8.892;2022-07-29T21:45:11;7.63;;;4.10;;
31594;SDS011;18200;48.726;8.892;2022-07-29T21:49:14;9.88;;;4.28;;
31594;SDS011;18200;48.726;8.892;2022-07-29T21:53:15;11.07;;;4.13;;
31594;SDS011;18200;48.726;8.892;2022-07-29T21:57:16;9.90;;;4.22;;
31594;SDS011;18200;48.726;8.892;2022-07-29T22:01:16;12.20;;;4.18;;
31594;SDS011;18200;48.726;8.892;2022-07-29T22:05:17;8.00;;;3.40;;
31594;SDS011;18200;48.726;8.892;2022-07-29T22:09:18;6.25;;;3.95;;
31594;SDS011;18200;48.726;8.892;2022-07-29T22:13:18;7.90;;;3.75;;
31594;SDS011;18200;48.726;8.892;2022-07-29T22:17:18;8.27;;;3.88;;
31594;SDS011;18200;48.726;8.892;2022-07-29T22:21:19;6.47;;;3.90;;
31594;SDS011;18200;48.726;8.892;2022-07-29T22:25:19;8.77;;;4.18;;
31594;SDS011;18200;48.726;8.892;2022-07-29T22:29:20;7.45;;;4.00;;
31594;SDS011;18200;48.726;8.892;2022-07-29T22:33:20;5.25;;;3.95;;
31594;SDS011;18200;48.726;8.892;2022-07-29T22:37:21;6.32;;;3.92;;
31594;SDS011;18200;48.726;8.892;2022-07-29T22:41:21;5.30;;;3.83;;
31594;SDS011;18200;48.726;8.892;2022-07-29T22:45:21;5.10;;;3.58;;
31594;SDS011;18200;48.726;8.892;2022-07-29T22:49:22;8.35;;;3.95;;
31594;SDS011;18200;48.726;8.892;2022-07-29T22:53:22;11.75;;;4.97;;
31594;SDS011;18200;48.726;8.892;2022-07-29T22:57:22;10.55;;;4.57;;
31594;SDS011;18200;48.726;8.892;2022-07-29T23:01:23;8.55;;;4.20;;
31594;SDS011;18200;48.726;8.892;2022-07-29T23:05:23;4.65;;;4.05;;
31594;SDS011;18200;48.726;8.892;2022-07-29T23:09:25;5.82;;;4.10;;
31594;SDS011;18200;48.726;8.892;2022-07-29T23:13:25;9.05;;;4.40;;
31594;SDS011;18200;48.726;8.892;2022-07-29T23:17:26;5.35;;;3.70;;
31594;SDS011;18200;48.726;8.892;2022-07-29T23:21:26;7.18;;;4.22;;
31594;SDS011;18200;48.726;8.892;2022-07-29T23:25:27;7.03;;;4.55;;
31594;SDS011;18200;48.726;8.892;2022-07-29T23:29:27;6.70;;;4.07;;
31594;SDS011;18200;48.726;8.892;2022-07-29T23:33:27;9.82;;;4.72;;
31594;SDS011;18200;48.726;8.892;2022-07-29T23:37:28;7.70;;;4.60;;
31594;SDS011;18200;48.726;8.892;2022-07-29T23:41:29;8.50;;;4.28;;
31594;SDS011;18200;48.726;8.892;2022-07-29T23:45:30;5.53;;;3.92;;
31594;SDS011;18200;48.726;8.892;2022-07-29T23:49:30;9.77;;;4.10;;
31594;SDS011;18200;48.726;8.892;2022-07-29T23:53:30;7.13;;;4.25;;
31594;SDS011;18200;48.726;8.892;2022-07-29T23:57:34;6.65;;;4.22;;
